OPA Logo
 
ASOS:
At:2021.11.29 0015 UTC
Wind:240° @ 7KT
Viz: 10 mile(s)
Sky: clear
Temp: 62 F (17 C)
DewP: 33 F (1 C)
RH: 33%
Baro: 30.21 in.
ob: KBDN 290015Z AUTO 24007KT 10SM CLR 17/01 A3021 RMK AO2

ASOS: KRDM
At:2021.11.28 2356 UTC
Wind:010° @ 4KT
Viz: 10 mile(s)
Sky: clear
Temp: 64.0 F (17.8 C)
DewP: 37.9 F (3.3 C)
RH: 37%
Baro: 30.18 in.
ob: KRDM 282356Z 01004KT 10SM CLR 18/03 A3018 RMK AO2 SLP206 T01780033 10200 20144 55002
Apache-SSL Logo

Valid HTML 4.01!

Central Oregon OPA Chapter

XMAS Party December 2001

Click on Images to see image full size

Nancy
Nancy Lecklider and new friend
Ann, Virgina and Dale
Ann, Virginia and Dale
The Gang
The Gang

Photo Credits: Dean Cameron


Web page by: gem@rellim.com